Time;durP1;ratioP1;P1;durP2;ratioP2;P2;SDS_P1;SDS_P2;PMS_P1;PMS_P2;Temp;Humidity;BMP_temperature;BMP_pressure;BME280_temperature;BME280_humidity;BME280_pressure;Samples;Min_cycle;Max_cycle;Signal;HPM_P1;HPM_P2
2023/04/17 00:00:10;;;;;;;;;;;;;;;;;;4893041;29;19938;-81
2023/04/17 00:02:43;;;;;;;;;;;;;;;;;;4917770;29;19916;-83
2023/04/17 00:05:09;;;;;;;;;;;;;;;;;;4887190;29;19916;-80
2023/04/17 00:07:37;;;;;;;;;;;;;;;;;;4919294;29;19953;-82
2023/04/17 00:10:08;;;;;;;;;;;;;;;;;;4882349;29;20008;-81
2023/04/17 00:12:34;;;;;;;;;;;;;;;;;;4882636;29;19919;-80
2023/04/17 00:14:59;;;;;;;;;;;;;;;;;;4882189;29;19901;-80
2023/04/17 00:17:32;;;;;;;;;;;;;;;;;;4899032;29;19915;-81
2023/04/17 00:20:06;;;;;;;;;;;;;;;;;;4875938;29;19916;-81
2023/04/17 00:22:32;;;;;;;;;;;;;;;;;;4875045;29;19920;-81
2023/04/17 00:25:06;;;;;;;;;;;;;;;;;;4875796;29;20006;-80
2023/04/17 00:27:36;;;;;;;;;;;;;;;;;;4879617;29;20294;-82
2023/04/17 00:30:02;;;;;;;;;;;;;;;;;;4909568;29;19944;-82
2023/04/17 00:32:31;;;;;;;;;;;;;;;;;;4909835;29;19926;-81
2023/04/17 00:35:02;;;;;;;;;;;;;;;;;;4895648;29;19964;-81
2023/04/17 00:37:30;;;;;;;;;;;;;;;;;;4910356;29;19923;-81
2023/04/17 00:39:56;;;;;;;;;;;;;;;;;;4909848;29;19915;-80
2023/04/17 00:42:25;;;;;;;;;;;;;;;;;;4909858;29;19975;-81
2023/04/17 00:44:51;;;;;;;;;;;;;;;;;;4892680;29;19920;-81
2023/04/17 00:47:21;;;;;;;;;;;;;;;;;;4909413;29;19915;-80
2023/04/17 00:49:52;;;;;;;;;;;;;;;;;;4910365;29;19970;-80
2023/04/17 00:52:23;;;;;;;;;;;;;;;;;;4909575;29;19919;-82
2023/04/17 00:54:53;;;;;;;;;;;;;;;;;;4894835;29;19947;-81
2023/04/17 00:57:18;;;;;;;;;;;;;;;;;;4893939;29;19922;-81
2023/04/17 00:59:45;;;;;;;;;;;;;;;;;;4897053;29;19922;-80
2023/04/17 01:02:11;;;;;;;;;;;;;;;;;;4877912;29;19915;-81
2023/04/17 01:04:40;;;;;;;;;;;;;;;;;;4891315;29;19920;-81
2023/04/17 01:07:08;;;;;;;;;;;;;;;;;;4907574;29;19978;-81
2023/04/17 01:09:38;;;;;;;;;;;;;;;;;;4895287;29;20003;-81
2023/04/17 01:12:04;;;;;;;;;;;;;;;;;;4878117;29;20336;-81
2023/04/17 01:14:32;;;;;;;;;;;;;;;;;;4878085;29;19927;-81
2023/04/17 01:16:58;;;;;;;;;;;;;;;;;;4878588;29;19922;-81
2023/04/17 01:19:24;;;;;;;;;;;;;;;;;;4895670;29;19974;-82
2023/04/17 01:21:50;;;;;;;;;;;;;;;;;;4911133;29;19911;-81
2023/04/17 01:24:16;;;;;;;;;;;;;;;;;;4894434;29;19915;-81
2023/04/17 01:26:42;;;;;;;;;;;;;;;;;;4894642;29;19919;-80
2023/04/17 01:29:08;;;;;;;;;;;;;;;;;;4897324;29;19922;-80
2023/04/17 01:31:46;;;;;;;;;;;;;;;;;;4898062;29;19926;-83
2023/04/17 01:34:12;;;;;;;;;;;;;;;;;;4911252;29;19949;-81
2023/04/17 01:36:41;;;;;;;;;;;;;;;;;;4884040;29;19955;-81
2023/04/17 01:39:07;;;;;;;;;;;;;;;;;;4897747;29;19916;-81
2023/04/17 01:41:36;;;;;;;;;;;;;;;;;;4914973;29;19915;-82
2023/04/17 01:44:05;;;;;;;;;;;;;;;;;;4898178;29;19947;-80
2023/04/17 01:46:34;;;;;;;;;;;;;;;;;;4899446;29;19939;-81
2023/04/17 01:49:02;;;;;;;;;;;;;;;;;;4900048;29;19922;-81
2023/04/17 01:51:28;;;;;;;;;;;;;;;;;;4915131;29;19919;-82
2023/04/17 01:53:59;;;;;;;;;;;;;;;;;;4930305;29;19920;-80
2023/04/17 01:56:26;;;;;;;;;;;;;;;;;;4885257;29;19958;-81
2023/04/17 01:58:52;;;;;;;;;;;;;;;;;;4899922;29;19919;-82
2023/04/17 02:01:20;;;;;;;;;;;;;;;;;;4932523;29;19987;-81
2023/04/17 02:03:46;;;;;;;;;;;;;;;;;;4915117;29;19923;-80
2023/04/17 02:06:12;;;;;;;;;;;;;;;;;;4897707;29;19962;-80
2023/04/17 02:08:41;;;;;;;;;;;;;;;;;;4896393;29;19915;-81
2023/04/17 02:11:09;;;;;;;;;;;;;;;;;;4913818;29;19920;-81
2023/04/17 02:13:35;;;;;;;;;;;;;;;;;;4896613;29;19915;-80
2023/04/17 02:16:01;;;;;;;;;;;;;;;;;;4912178;29;19920;-82
2023/04/17 02:18:30;;;;;;;;;;;;;;;;;;4882043;29;19922;-81
2023/04/17 02:20:59;;;;;;;;;;;;;;;;;;4914394;29;19915;-80
2023/04/17 02:23:25;;;;;;;;;;;;;;;;;;4914940;29;19943;-81
2023/04/17 02:25:51;;;;;;;;;;;;;;;;;;4915194;29;19924;-81
2023/04/17 02:28:17;;;;;;;;;;;;;;;;;;4897427;29;19915;-81
2023/04/17 02:30:44;;;;;;;;;;;;;;;;;;4912860;29;19923;-81
2023/04/17 02:33:10;;;;;;;;;;;;;;;;;;4927001;29;19916;-81
2023/04/17 02:35:42;;;;;;;;;;;;;;;;;;4929920;29;19915;-81
2023/04/17 02:38:08;;;;;;;;;;;;;;;;;;4899548;29;19966;-82
2023/04/17 02:40:34;;;;;;;;;;;;;;;;;;4914995;29;20395;-81
2023/04/17 02:43:01;;;;;;;;;;;;;;;;;;4913841;29;19991;-80
2023/04/17 02:45:27;;;;;;;;;;;;;;;;;;4926988;29;19963;-81
2023/04/17 02:47:53;;;;;;;;;;;;;;;;;;4896109;29;19912;-81
2023/04/17 02:50:19;;;;;;;;;;;;;;;;;;4899013;29;19969;-81
2023/04/17 02:52:58;;;;;;;;;;;;;;;;;;4880600;29;19924;-81
2023/04/17 02:55:24;;;;;;;;;;;;;;;;;;4883105;29;19911;-82
2023/04/17 02:57:52;;;;;;;;;;;;;;;;;;4882296;29;19983;-82
2023/04/17 03:00:19;;;;;;;;;;;;;;;;;;4866564;29;19915;-80
2023/04/17 03:02:48;;;;;;;;;;;;;;;;;;4897088;29;19915;-82
2023/04/17 03:05:15;;;;;;;;;;;;;;;;;;4880925;29;19916;-81
2023/04/17 03:07:41;;;;;;;;;;;;;;;;;;4869476;29;20284;-82
2023/04/17 03:10:08;;;;;;;;;;;;;;;;;;4880275;29;20011;-83
2023/04/17 03:12:36;;;;;;;;;;;;;;;;;;4896231;29;19916;-81
2023/04/17 03:15:02;;;;;;;;;;;;;;;;;;4882272;29;19920;-81
2023/04/17 03:17:31;;;;;;;;;;;;;;;;;;4897773;29;19916;-81
2023/04/17 03:19:58;;;;;;;;;;;;;;;;;;4881024;29;19922;-82
2023/04/17 03:22:23;;;;;;;;;;;;;;;;;;4896855;29;19916;-81
2023/04/17 03:24:52;;;;;;;;;;;;;;;;;;4897700;29;19983;-81
2023/04/17 03:27:23;;;;;;;;;;;;;;;;;;4880534;29;19920;-81
2023/04/17 03:29:50;;;;;;;;;;;;;;;;;;4878767;29;19923;-81
2023/04/17 03:32:19;;;;;;;;;;;;;;;;;;4879211;29;19979;-81
2023/04/17 03:34:46;;;;;;;;;;;;;;;;;;4896074;29;19923;-83
2023/04/17 03:37:12;;;;;;;;;;;;;;;;;;4896705;29;19983;-81
2023/04/17 03:39:37;;;;;;;;;;;;;;;;;;4895386;29;19979;-81
2023/04/17 03:42:03;;;;;;;;;;;;;;;;;;4909749;29;19911;-81
2023/04/17 03:44:29;;;;;;;;;;;;;;;;;;4899082;29;19920;-81
2023/04/17 03:46:56;;;;;;;;;;;;;;;;;;4900840;29;19915;-81
2023/04/17 03:49:24;;;;;;;;;;;;;;;;;;4915037;29;20306;-80
2023/04/17 03:51:56;;;;;;;;;;;;;;;;;;4900026;29;19920;-81
2023/04/17 03:54:25;;;;;;;;;;;;;;;;;;4911620;29;19923;-82
2023/04/17 03:56:53;;;;;;;;;;;;;;;;;;4887664;29;19912;-81
2023/04/17 03:59:19;;;;;;;;;;;;;;;;;;4885271;29;19975;-82
2023/04/17 04:01:48;;;;;;;;;;;;;;;;;;4884528;29;19916;-81
2023/04/17 04:04:19;;;;;;;;;;;;;;;;;;4882918;29;19916;-80
2023/04/17 04:06:48;;;;;;;;;;;;;;;;;;4897973;29;19941;-81
2023/04/17 04:09:16;;;;;;;;;;;;;;;;;;4886065;29;19916;-81
2023/04/17 04:11:42;;;;;;;;;;;;;;;;;;4917374;29;19952;-83
2023/04/17 04:14:11;;;;;;;;;;;;;;;;;;4900367;29;19915;-81
2023/04/17 04:16:37;;;;;;;;;;;;;;;;;;4930421;29;19922;-82
2023/04/17 04:19:09;;;;;;;;;;;;;;;;;;4899243;29;19916;-81
2023/04/17 04:21:34;;;;;;;;;;;;;;;;;;4900610;29;19998;-82
2023/04/17 04:24:02;;;;;;;;;;;;;;;;;;4899468;29;19920;-80
2023/04/17 04:26:28;;;;;;;;;;;;;;;;;;4928081;29;19922;-81
2023/04/17 04:28:58;;;;;;;;;;;;;;;;;;4895251;29;19939;-80
2023/04/17 04:31:59;;;;;;;;;;;;;;;;;;4909319;29;19926;-82
2023/04/17 04:34:32;;;;;;;;;;;;;;;;;;4926674;29;19915;-79
2023/04/17 04:37:01;;;;;;;;;;;;;;;;;;4868084;29;19920;-81
2023/04/17 04:39:39;;;;;;;;;;;;;;;;;;4897336;29;19915;-81
2023/04/17 04:42:08;;;;;;;;;;;;;;;;;;4880140;29;19941;-81
2023/04/17 04:45:04;;;;;;;;;;;;;;;;;;4869137;29;19922;-80
2023/04/17 04:47:35;;;;;;;;;;;;;;;;;;4880360;29;19955;-81
2023/04/17 04:50:02;;;;;;;;;;;;;;;;;;4879488;29;19919;-82
2023/04/17 04:52:35;;;;;;;;;;;;;;;;;;4879645;29;19920;-81
2023/04/17 04:55:08;;;;;;;;;;;;;;;;;;4879214;29;19920;-83
2023/04/17 04:57:37;;;;;;;;;;;;;;;;;;4895793;29;19916;-80
2023/04/17 05:00:05;;;;;;;;;;;;;;;;;;4893159;29;19916;-81
2023/04/17 05:02:37;;;;;;;;;;;;;;;;;;4893458;29;19924;-81
2023/04/17 05:05:07;;;;;;;;;;;;;;;;;;4877779;29;19993;-81
2023/04/17 05:07:32;;;;;;;;;;;;;;;;;;4891317;29;19915;-83
2023/04/17 05:10:02;;;;;;;;;;;;;;;;;;4909595;29;19930;-82
2023/04/17 05:12:33;;;;;;;;;;;;;;;;;;4893056;29;19931;-80
2023/04/17 05:14:59;;;;;;;;;;;;;;;;;;4879712;29;19919;-81
2023/04/17 05:17:25;;;;;;;;;;;;;;;;;;4899009;29;19919;-82
2023/04/17 05:19:51;;;;;;;;;;;;;;;;;;4900578;29;19919;-82
2023/04/17 05:22:21;;;;;;;;;;;;;;;;;;4898952;29;19951;-82
2023/04/17 05:25:07;;;;;;;;;;;;;;;;;;4915049;29;19915;-80
2023/04/17 05:27:36;;;;;;;;;;;;;;;;;;4896925;29;19915;-81
2023/04/17 05:30:01;;;;;;;;;;;;;;;;;;4900061;29;20289;-80
2023/04/17 05:32:30;;;;;;;;;;;;;;;;;;4899509;29;19919;-80
2023/04/17 05:35:05;;;;;;;;;;;;;;;;;;4899760;29;19975;-81
2023/04/17 05:37:31;;;;;;;;;;;;;;;;;;4897673;29;19919;-80
2023/04/17 05:40:00;;;;;;;;;;;;;;;;;;4899165;29;19937;-81
2023/04/17 05:42:30;;;;;;;;;;;;;;;;;;4881519;29;19922;-82
2023/04/17 05:45:03;;;;;;;;;;;;;;;;;;4912405;29;19915;-80
2023/04/17 05:47:31;;;;;;;;;;;;;;;;;;4898932;29;20395;-81
2023/04/17 05:50:00;;;;;;;;;;;;;;;;;;4913630;29;19915;-81
2023/04/17 05:52:27;;;;;;;;;;;;;;;;;;4914365;29;20019;-82
2023/04/17 05:54:53;;;;;;;;;;;;;;;;;;4913473;29;19928;-82
2023/04/17 05:57:19;;;;;;;;;;;;;;;;;;4929863;29;19915;-80
2023/04/17 05:59:46;;;;;;;;;;;;;;;;;;4928784;29;19954;-81
2023/04/17 06:02:12;;;;;;;;;;;;;;;;;;4910228;29;19922;-80
2023/04/17 06:04:40;;;;;;;;;;;;;;;;;;4896676;29;19916;-81
2023/04/17 06:07:07;;;;;;;;;;;;;;;;;;4896995;29;19959;-81
2023/04/17 06:09:35;;;;;;;;;;;;;;;;;;4897568;29;19916;-81
2023/04/17 06:12:03;;;;;;;;;;;;;;;;;;4928180;29;19919;-82
2023/04/17 06:14:29;;;;;;;;;;;;;;;;;;4917065;29;19919;-82
2023/04/17 06:16:58;;;;;;;;;;;;;;;;;;4902351;29;19915;-81
2023/04/17 06:19:24;;;;;;;;;;;;;;;;;;4899789;29;19915;-79
2023/04/17 06:21:50;;;;;;;;;;;;;;;;;;4886312;29;19951;-83
2023/04/17 06:24:18;;;;;;;;;;;;;;;;;;4902522;29;19995;-81
2023/04/17 06:26:46;;;;;;;;;;;;;;;;;;4898925;29;19916;-81
2023/04/17 06:29:12;;;;;;;;;;;;;;;;;;4917844;29;20294;-81
2023/04/17 06:31:41;;;;;;;;;;;;;;;;;;4898369;29;19926;-82
2023/04/17 06:34:10;;;;;;;;;;;;;;;;;;4882322;29;19915;-81
2023/04/17 06:36:43;;;;;;;;;;;;;;;;;;4897535;29;19923;-81
2023/04/17 06:39:14;;;;;;;;;;;;;;;;;;4898885;29;19998;-81
2023/04/17 06:41:40;;;;;;;;;;;;;;;;;;4897226;29;19922;-82
2023/04/17 06:44:06;;;;;;;;;;;;;;;;;;4897502;29;19971;-82
2023/04/17 06:46:53;;;;;;;;;;;;;;;;;;4910789;29;19955;-80
2023/04/17 06:49:21;;;;;;;;;;;;;;;;;;4926919;29;19915;-82
2023/04/17 06:51:52;;;;;;;;;;;;;;;;;;4898034;29;19919;-81
2023/04/17 06:54:17;;;;;;;;;;;;;;;;;;4894284;29;19927;-81
2023/04/17 06:56:43;;;;;;;;;;;;;;;;;;4892136;29;19916;-81
2023/04/17 06:59:09;;;;;;;;;;;;;;;;;;4859592;29;19915;-80
2023/04/17 07:01:36;;;;;;;;;;;;;;;;;;4875271;29;19924;-82
2023/04/17 07:04:02;;;;;;;;;;;;;;;;;;4860884;29;19931;-81
2023/04/17 07:06:28;;;;;;;;;;;;;;;;;;4879504;29;19959;-82
2023/04/17 07:08:54;;;;;;;;;;;;;;;;;;4894565;29;20398;-80
2023/04/17 07:11:20;;;;;;;;;;;;;;;;;;4908808;29;19920;-81
2023/04/17 07:13:46;;;;;;;;;;;;;;;;;;4891169;29;19915;-80
2023/04/17 07:16:12;;;;;;;;;;;;;;;;;;4906306;29;20371;-82
2023/04/17 07:18:41;;;;;;;;;;;;;;;;;;4876734;29;19923;-81
2023/04/17 07:21:06;;;;;;;;;;;;;;;;;;4873984;29;19915;-79
2023/04/17 07:23:32;;;;;;;;;;;;;;;;;;4891212;29;19975;-80
2023/04/17 07:25:58;;;;;;;;;;;;;;;;;;4891092;29;19926;-81
2023/04/17 07:28:23;;;;;;;;;;;;;;;;;;4893104;29;19916;-81
2023/04/17 07:30:56;;;;;;;;;;;;;;;;;;4892313;29;20291;-80
2023/04/17 07:33:25;;;;;;;;;;;;;;;;;;4897740;29;19946;-81
2023/04/17 07:35:52;;;;;;;;;;;;;;;;;;4909450;29;19940;-82
2023/04/17 07:38:17;;;;;;;;;;;;;;;;;;4911273;29;19915;-80
2023/04/17 07:40:46;;;;;;;;;;;;;;;;;;4892219;29;19921;-81
2023/04/17 07:43:11;;;;;;;;;;;;;;;;;;4905265;29;20114;-81
2023/04/17 07:45:37;;;;;;;;;;;;;;;;;;4907477;29;19922;-80
2023/04/17 07:48:03;;;;;;;;;;;;;;;;;;4908075;29;19916;-79
2023/04/17 07:50:29;;;;;;;;;;;;;;;;;;4907000;29;19920;-79
2023/04/17 07:52:57;;;;;;;;;;;;;;;;;;4906523;29;19962;-80
2023/04/17 07:55:23;;;;;;;;;;;;;;;;;;4908617;29;19916;-81
2023/04/17 07:57:50;;;;;;;;;;;;;;;;;;4895761;29;19915;-80
2023/04/17 08:00:22;;;;;;;;;;;;;;;;;;4906675;29;19979;-81
2023/04/17 08:02:48;;;;;;;;;;;;;;;;;;4901262;29;19924;-84
2023/04/17 08:05:22;;;;;;;;;;;;;;;;;;4893533;29;20116;-80
2023/04/17 08:07:47;;;;;;;;;;;;;;;;;;4894194;29;19922;-80
2023/04/17 08:10:16;;;;;;;;;;;;;;;;;;4893199;29;20013;-81
2023/04/17 08:12:42;;;;;;;;;;;;;;;;;;4907716;29;19962;-79
2023/04/17 08:15:08;;;;;;;;;;;;;;;;;;4878625;29;19923;-80
2023/04/17 08:17:34;;;;;;;;;;;;;;;;;;4890635;29;19916;-80
2023/04/17 08:20:13;;;;;;;;;;;;;;;;;;4892292;29;19922;-81
2023/04/17 08:22:38;;;;;;;;;;;;;;;;;;4892902;29;19941;-80
2023/04/17 08:25:08;;;;;;;;;;;;;;;;;;4859397;29;19916;-80
2023/04/17 08:27:33;;;;;;;;;;;;;;;;;;4909320;29;20296;-82
2023/04/17 08:30:00;;;;;;;;;;;;;;;;;;4925255;29;19916;-81
2023/04/17 08:32:30;;;;;;;;;;;;;;;;;;4862735;29;19930;-81
2023/04/17 08:34:55;;;;;;;;;;;;;;;;;;4894636;29;19915;-81
2023/04/17 08:37:21;;;;;;;;;;;;;;;;;;4893253;29;20007;-83
2023/04/17 08:39:51;;;;;;;;;;;;;;;;;;4909701;29;20296;-81
2023/04/17 08:42:17;;;;;;;;;;;;;;;;;;4909280;29;20346;-82
2023/04/17 08:44:42;;;;;;;;;;;;;;;;;;4909912;29;19943;-80
2023/04/17 08:47:10;;;;;;;;;;;;;;;;;;4891632;29;19916;-80
2023/04/17 08:49:38;;;;;;;;;;;;;;;;;;4905880;29;19948;-81
2023/04/17 08:52:04;;;;;;;;;;;;;;;;;;4893256;29;19926;-81
2023/04/17 08:54:30;;;;;;;;;;;;;;;;;;4912356;29;19920;-81
2023/04/17 08:56:56;;;;;;;;;;;;;;;;;;4913075;29;19923;-81
2023/04/17 08:59:25;;;;;;;;;;;;;;;;;;4898613;29;19916;-82
2023/04/17 09:01:50;;;;;;;;;;;;;;;;;;4896100;29;19915;-79
2023/04/17 09:04:19;;;;;;;;;;;;;;;;;;4892841;29;19916;-81
2023/04/17 09:06:45;;;;;;;;;;;;;;;;;;4907937;29;19916;-81
2023/04/17 09:09:10;;;;;;;;;;;;;;;;;;4909001;29;19923;-80
2023/04/17 09:11:39;;;;;;;;;;;;;;;;;;4899829;29;19975;-83
2023/04/17 09:14:16;;;;;;;;;;;;;;;;;;4917820;29;19987;-85
2023/04/17 09:16:45;;;;;;;;;;;;;;;;;;4917252;29;19900;-85
2023/04/17 09:19:22;;;;;;;;;;;;;;;;;;4906448;29;19919;-83
2023/04/17 09:22:08;;;;;;;;;;;;;;;;;;4922140;29;19910;-84
2023/04/17 09:27:31;;;;;;;;;;;;;;;;;;4971499;23;19923;-85
2023/04/17 09:32:49;;;;;;;;;;;;;;;;;;5416938;23;19919;-84
2023/04/17 09:35:27;;;;;;;;;;;;;;;;;;5185582;23;19987;-84
2023/04/17 09:40:35;;;;;;;;;;;;;;;;;;5111077;23;19987;-84
2023/04/17 09:48:34;;;;;;;;;;;;;;;;;;5443091;23;19911;-84
2023/04/17 09:51:23;;;;;;;;;;;;;;;;;;5722458;23;19931;-84
2023/04/17 09:54:03;;;;;;;;;;;;;;;;;;;;;
2023/04/17 09:56:32;;;;;;;;;;;;;;;;;;4940727;28;19958;-84
2023/04/17 09:59:10;;;;;;;;;;;;;;;;;;4940990;28;19903;-84
2023/04/17 10:04:39;;;;;;;;;;;;;;;;;;5337198;23;19931;-82
2023/04/17 10:07:07;;;;;;;;;;;;;;;;;;4943640;28;19915;-83
2023/04/17 10:09:38;;;;;;;;;;;;;;;;;;4910251;29;19915;-80
2023/04/17 10:12:07;;;;;;;;;;;;;;;;;;4910037;29;19966;-81
2023/04/17 10:14:35;;;;;;;;;;;;;;;;;;4942315;29;19940;-81
2023/04/17 10:17:18;;;;;;;;;;;;;;;;;;4936518;29;19958;-83
2023/04/17 10:19:44;;;;;;;;;;;;;;;;;;4905494;29;19915;-78
2023/04/17 10:22:10;;;;;;;;;;;;;;;;;;4894023;29;20295;-76
2023/04/17 10:24:38;;;;;;;;;;;;;;;;;;4905100;29;19915;-76
2023/04/17 10:27:04;;;;;;;;;;;;;;;;;;4922907;29;19938;-75
2023/04/17 10:29:29;;;;;;;;;;;;;;;;;;4919469;29;20402;-77
2023/04/17 10:31:55;;;;;;;;;;;;;;;;;;4890341;29;19920;-76
2023/04/17 10:34:20;;;;;;;;;;;;;;;;;;4872039;29;19916;-76
2023/04/17 10:36:47;;;;;;;;;;;;;;;;;;4901862;29;19998;-77
2023/04/17 10:39:12;;;;;;;;;;;;;;;;;;4902285;29;20018;-78
2023/04/17 10:41:38;;;;;;;;;;;;;;;;;;4902738;29;19946;-77
2023/04/17 10:44:03;;;;;;;;;;;;;;;;;;4901189;29;19915;-78
2023/04/17 10:46:29;;;;;;;;;;;;;;;;;;4902472;29;20450;-77
2023/04/17 10:48:57;;;;;;;;;;;;;;;;;;4885684;29;19916;-74
2023/04/17 10:51:23;;;;;;;;;;;;;;;;;;4900411;29;19920;-75
2023/04/17 10:53:49;;;;;;;;;;;;;;;;;;4922455;23;19927;-76
2023/04/17 10:56:14;;;;;;;;;;;;;;;;;;4901134;29;19926;-77
2023/04/17 10:58:40;;;;;;;;;;;;;;;;;;4917101;29;19915;-77
2023/04/17 11:01:05;;;;;;;;;;;;;;;;;;4918225;29;19919;-75
2023/04/17 11:03:30;;;;;;;;;;;;;;;;;;4918010;29;20394;-75
2023/04/17 11:05:56;;;;;;;;;;;;;;;;;;4916088;29;19923;-76
2023/04/17 11:08:22;;;;;;;;;;;;;;;;;;4882389;29;19915;-78
2023/04/17 11:10:47;;;;;;;;;;;;;;;;;;4899234;29;19915;-77
2023/04/17 11:13:13;;;;;;;;;;;;;;;;;;4902176;29;19927;-88
2023/04/17 11:15:38;;;;;;;;;;;;;;;;;;4885450;29;19919;-86
2023/04/17 11:18:04;;;;;;;;;;;;;;;;;;4903403;29;20014;-88
2023/04/17 11:20:29;;;;;;;;;;;;;;;;;;4902632;29;19935;-86
2023/04/17 11:22:55;;;;;;;;;;;;;;;;;;4902496;29;19919;-87
2023/04/17 11:25:21;;;;;;;;;;;;;;;;;;4901451;29;19947;-85
2023/04/17 11:27:46;;;;;;;;;;;;;;;;;;4900932;29;19927;-85
2023/04/17 11:30:12;;;;;;;;;;;;;;;;;;4901877;29;19912;-86
2023/04/17 11:32:37;;;;;;;;;;;;;;;;;;4898951;29;20372;-86
2023/04/17 11:35:02;;;;;;;;;;;;;;;;;;4898948;29;20392;-86
2023/04/17 11:37:28;;;;;;;;;;;;;;;;;;4900372;29;19927;-87
2023/04/17 11:39:53;;;;;;;;;;;;;;;;;;4898358;29;19958;-87
2023/04/17 11:42:19;;;;;;;;;;;;;;;;;;4899836;29;19939;-87
2023/04/17 11:44:45;;;;;;;;;;;;;;;;;;4899255;29;20391;-85
2023/04/17 11:47:10;;;;;;;;;;;;;;;;;;4900513;29;19995;-85
2023/04/17 11:49:35;;;;;;;;;;;;;;;;;;4899202;29;19915;-85
2023/04/17 11:52:02;;;;;;;;;;;;;;;;;;4899361;29;20384;-86
2023/04/17 11:54:27;;;;;;;;;;;;;;;;;;4899991;29;19919;-86
2023/04/17 11:56:53;;;;;;;;;;;;;;;;;;4899049;29;19922;-86
2023/04/17 11:59:18;;;;;;;;;;;;;;;;;;4899710;29;19992;-87
2023/04/17 12:01:46;;;;;;;;;;;;;;;;;;4883356;29;20284;-86
2023/04/17 12:04:12;;;;;;;;;;;;;;;;;;4899796;29;19920;-86
2023/04/17 12:06:37;;;;;;;;;;;;;;;;;;4899694;29;20349;-85
2023/04/17 12:09:05;;;;;;;;;;;;;;;;;;4899268;29;19916;-86
2023/04/17 12:11:31;;;;;;;;;;;;;;;;;;4897482;29;19920;-87
2023/04/17 12:13:56;;;;;;;;;;;;;;;;;;4897279;29;19915;-86
2023/04/17 12:16:23;;;;;;;;;;;;;;;;;;4898484;29;19923;-87
2023/04/17 12:18:48;;;;;;;;;;;;;;;;;;4897460;29;19919;-86
2023/04/17 12:21:14;;;;;;;;;;;;;;;;;;4897144;29;19916;-86
2023/04/17 12:23:40;;;;;;;;;;;;;;;;;;4897801;29;20336;-86
2023/04/17 12:26:05;;;;;;;;;;;;;;;;;;4897406;29;19919;-84
2023/04/17 12:28:31;;;;;;;;;;;;;;;;;;4897487;29;19912;-85
2023/04/17 12:30:56;;;;;;;;;;;;;;;;;;4898969;29;19923;-87
2023/04/17 12:33:21;;;;;;;;;;;;;;;;;;4881602;29;19935;-86
2023/04/17 12:35:47;;;;;;;;;;;;;;;;;;4897326;29;20383;-86
2023/04/17 12:38:12;;;;;;;;;;;;;;;;;;4897233;29;20347;-85
2023/04/17 12:40:41;;;;;;;;;;;;;;;;;;4897459;29;19967;-85
2023/04/17 12:43:07;;;;;;;;;;;;;;;;;;4898935;29;19958;-85
2023/04/17 12:45:33;;;;;;;;;;;;;;;;;;4899104;29;20001;-86
2023/04/17 12:47:58;;;;;;;;;;;;;;;;;;4882391;29;19915;-86
2023/04/17 12:50:24;;;;;;;;;;;;;;;;;;4900113;29;19915;-87
2023/04/17 12:52:49;;;;;;;;;;;;;;;;;;4899062;29;19990;-85
2023/04/17 12:55:15;;;;;;;;;;;;;;;;;;4897544;29;20372;-85
2023/04/17 12:57:40;;;;;;;;;;;;;;;;;;4899515;29;19963;-85
2023/04/17 13:00:06;;;;;;;;;;;;;;;;;;4899999;29;19916;-87
2023/04/17 13:02:31;;;;;;;;;;;;;;;;;;4885280;29;19915;-84
2023/04/17 13:04:56;;;;;;;;;;;;;;;;;;4903496;29;19916;-85
2023/04/17 13:07:22;;;;;;;;;;;;;;;;;;4909111;29;19904;-85
2023/04/17 13:09:50;;;;;;;;;;;;;;;;;;4902093;29;19947;-83
2023/04/17 13:12:16;;;;;;;;;;;;;;;;;;4919193;29;19915;-82
2023/04/17 13:14:41;;;;;;;;;;;;;;;;;;4919866;29;19926;-83
2023/04/17 13:17:06;;;;;;;;;;;;;;;;;;4901770;29;19967;-84
2023/04/17 13:19:45;;;;;;;;;;;;;;;;;;;;;
2023/04/17 13:22:21;;;;;;;;;;;;;;;;;;4914565;29;19915;-84
2023/04/17 13:24:49;;;;;;;;;;;;;;;;;;4913187;29;19915;-85
2023/04/17 13:27:14;;;;;;;;;;;;;;;;;;4887475;29;20415;-84
2023/04/17 13:29:40;;;;;;;;;;;;;;;;;;4898985;29;20014;-86
2023/04/17 13:32:05;;;;;;;;;;;;;;;;;;4881691;29;19935;-86
2023/04/17 13:34:31;;;;;;;;;;;;;;;;;;4897157;29;19960;-86
2023/04/17 13:36:56;;;;;;;;;;;;;;;;;;4884419;29;19915;-85
2023/04/17 13:39:22;;;;;;;;;;;;;;;;;;4902476;29;19943;-84
2023/04/17 13:41:47;;;;;;;;;;;;;;;;;;4888310;29;19951;-84
2023/04/17 13:44:13;;;;;;;;;;;;;;;;;;4888185;29;19916;-87
2023/04/17 13:46:38;;;;;;;;;;;;;;;;;;4903896;29;19946;-85
2023/04/17 13:49:04;;;;;;;;;;;;;;;;;;4904010;29;19916;-86
2023/04/17 13:51:30;;;;;;;;;;;;;;;;;;4902729;29;20296;-85
2023/04/17 13:53:57;;;;;;;;;;;;;;;;;;4900471;29;20346;-87
2023/04/17 13:56:25;;;;;;;;;;;;;;;;;;4904832;29;19921;-85
2023/04/17 13:58:51;;;;;;;;;;;;;;;;;;4870524;29;19919;-84
2023/04/17 14:01:16;;;;;;;;;;;;;;;;;;4901867;29;19915;-86
2023/04/17 14:03:41;;;;;;;;;;;;;;;;;;4870109;29;19916;-86
2023/04/17 14:06:07;;;;;;;;;;;;;;;;;;4885183;29;19943;-87
2023/04/17 14:08:32;;;;;;;;;;;;;;;;;;4884689;29;20006;-86
2023/04/17 14:10:58;;;;;;;;;;;;;;;;;;4901434;29;19911;-86
2023/04/17 14:13:24;;;;;;;;;;;;;;;;;;4901186;29;20351;-85
2023/04/17 14:15:52;;;;;;;;;;;;;;;;;;4884283;29;20362;-85
2023/04/17 14:18:17;;;;;;;;;;;;;;;;;;4885281;29;19915;-86
2023/04/17 14:20:43;;;;;;;;;;;;;;;;;;4901862;29;20038;-86
2023/04/17 14:23:08;;;;;;;;;;;;;;;;;;4900017;29;19922;-85
2023/04/17 14:25:34;;;;;;;;;;;;;;;;;;4900701;29;19922;-86
2023/04/17 14:27:59;;;;;;;;;;;;;;;;;;4884836;29;19915;-86
2023/04/17 14:30:24;;;;;;;;;;;;;;;;;;4901313;29;19923;-86
2023/04/17 14:32:52;;;;;;;;;;;;;;;;;;4903880;29;20025;-84
2023/04/17 14:35:17;;;;;;;;;;;;;;;;;;4904395;29;19915;-86
2023/04/17 14:37:42;;;;;;;;;;;;;;;;;;4887266;29;20017;-85
2023/04/17 14:40:08;;;;;;;;;;;;;;;;;;4900436;29;19915;-87
2023/04/17 14:42:33;;;;;;;;;;;;;;;;;;4900971;29;19915;-86
2023/04/17 14:44:59;;;;;;;;;;;;;;;;;;4884613;29;19915;-86
2023/04/17 14:47:24;;;;;;;;;;;;;;;;;;4883403;29;19939;-86
2023/04/17 14:49:49;;;;;;;;;;;;;;;;;;4901536;29;19911;-85
2023/04/17 14:52:15;;;;;;;;;;;;;;;;;;4899593;29;19919;-86
2023/04/17 14:54:40;;;;;;;;;;;;;;;;;;4900963;29;20299;-84
2023/04/17 14:57:06;;;;;;;;;;;;;;;;;;4883913;29;19935;-86
2023/04/17 14:59:31;;;;;;;;;;;;;;;;;;4869021;29;20431;-86
2023/04/17 15:01:57;;;;;;;;;;;;;;;;;;4899609;29;19964;-85
2023/04/17 15:04:22;;;;;;;;;;;;;;;;;;4900249;29;19967;-86
2023/04/17 15:06:48;;;;;;;;;;;;;;;;;;4885770;29;20002;-84
2023/04/17 15:09:13;;;;;;;;;;;;;;;;;;4871484;29;19974;-84
2023/04/17 15:11:39;;;;;;;;;;;;;;;;;;4901819;29;19919;-85
2023/04/17 15:14:04;;;;;;;;;;;;;;;;;;4884929;29;19911;-86
2023/04/17 15:16:30;;;;;;;;;;;;;;;;;;4900005;29;19915;-85
2023/04/17 15:18:55;;;;;;;;;;;;;;;;;;4900885;29;19938;-85
2023/04/17 15:21:20;;;;;;;;;;;;;;;;;;4899405;29;19968;-86
2023/04/17 15:23:46;;;;;;;;;;;;;;;;;;4900229;29;19915;-86
2023/04/17 15:26:11;;;;;;;;;;;;;;;;;;4899085;29;19916;-84
2023/04/17 15:28:37;;;;;;;;;;;;;;;;;;4899088;29;19919;-85
2023/04/17 15:31:02;;;;;;;;;;;;;;;;;;4899261;29;19922;-87
2023/04/17 15:33:28;;;;;;;;;;;;;;;;;;4899799;29;20360;-86
2023/04/17 15:35:54;;;;;;;;;;;;;;;;;;4900861;29;20340;-85
2023/04/17 15:38:19;;;;;;;;;;;;;;;;;;4900083;29;19990;-87
2023/04/17 15:40:45;;;;;;;;;;;;;;;;;;4900017;29;20470;-87
2023/04/17 15:43:11;;;;;;;;;;;;;;;;;;4884497;29;19970;-86
2023/04/17 15:45:36;;;;;;;;;;;;;;;;;;4899758;29;20006;-84
2023/04/17 15:48:01;;;;;;;;;;;;;;;;;;4899884;29;19939;-85
2023/04/17 15:50:27;;;;;;;;;;;;;;;;;;4899883;29;20299;-84
2023/04/17 15:52:52;;;;;;;;;;;;;;;;;;4882805;29;19919;-87
2023/04/17 15:55:18;;;;;;;;;;;;;;;;;;4898955;29;19915;-86
2023/04/17 15:57:43;;;;;;;;;;;;;;;;;;4883378;29;20325;-86
2023/04/17 16:00:09;;;;;;;;;;;;;;;;;;4884317;29;19915;-86
2023/04/17 16:02:35;;;;;;;;;;;;;;;;;;4900597;29;19915;-86
2023/04/17 16:05:01;;;;;;;;;;;;;;;;;;4884197;29;19921;-87
2023/04/17 16:07:26;;;;;;;;;;;;;;;;;;4902046;29;19931;-86
2023/04/17 16:09:51;;;;;;;;;;;;;;;;;;4900185;29;19982;-86
2023/04/17 16:12:17;;;;;;;;;;;;;;;;;;4884210;29;20340;-86
2023/04/17 16:14:42;;;;;;;;;;;;;;;;;;4900403;29;20115;-87
2023/04/17 16:17:08;;;;;;;;;;;;;;;;;;4903632;29;19916;-86
2023/04/17 16:19:34;;;;;;;;;;;;;;;;;;4903219;29;20284;-87
2023/04/17 16:21:59;;;;;;;;;;;;;;;;;;4905910;29;19915;-88
2023/04/17 16:24:25;;;;;;;;;;;;;;;;;;4890261;29;19931;-85
2023/04/17 16:26:50;;;;;;;;;;;;;;;;;;4907054;29;19915;-85
2023/04/17 16:29:16;;;;;;;;;;;;;;;;;;4893065;29;19915;-85
2023/04/17 16:31:41;;;;;;;;;;;;;;;;;;4917187;29;19929;-81
2023/04/17 16:34:08;;;;;;;;;;;;;;;;;;4901570;29;19941;-82
2023/04/17 16:36:33;;;;;;;;;;;;;;;;;;4916247;29;20004;-82
2023/04/17 16:39:01;;;;;;;;;;;;;;;;;;4913673;29;19915;-82
2023/04/17 16:41:26;;;;;;;;;;;;;;;;;;4911979;29;19959;-83
2023/04/17 16:43:51;;;;;;;;;;;;;;;;;;4911574;29;19931;-81
2023/04/17 16:46:17;;;;;;;;;;;;;;;;;;4891085;29;19940;-85
2023/04/17 16:48:42;;;;;;;;;;;;;;;;;;4888497;29;19919;-86
2023/04/17 16:51:08;;;;;;;;;;;;;;;;;;4903035;29;19947;-85
2023/04/17 16:53:33;;;;;;;;;;;;;;;;;;4907912;23;20066;-81
2023/04/17 16:55:59;;;;;;;;;;;;;;;;;;4917481;29;19918;-81
2023/04/17 16:58:24;;;;;;;;;;;;;;;;;;4916210;29;20310;-80
2023/04/17 17:00:50;;;;;;;;;;;;;;;;;;4917089;29;20403;-80
2023/04/17 17:03:15;;;;;;;;;;;;;;;;;;4896577;29;20380;-80